Time;durP1;ratioP1;P1;durP2;ratioP2;P2;SDS_P1;SDS_P2;PMS_P1;PMS_P2;Temp;Humidity;BMP_temperature;BMP_pressure;BME280_temperature;BME280_humidity;BME280_pressure;Samples;Min_cycle;Max_cycle;Signal;HPM_P1;HPM_P2
2022/10/19 00:01:18;;;;;;;2.03;1.67;;;;;;;9.41;40.28;94429.44;5048023;28;20040;-77
2022/10/19 00:03:47;;;;;;;2.60;1.55;;;;;;;9.55;40.02;94444.59;5050256;28;20047;-78
2022/10/19 00:06:19;;;;;;;3.55;1.60;;;;;;;9.58;40.52;94458.13;5048912;28;20415;-79
2022/10/19 00:08:45;;;;;;;2.33;1.80;;;;;;;9.42;40.27;94449.59;5049647;28;20031;-78
2022/10/19 00:11:11;;;;;;;3.47;1.98;;;;;;;9.45;40.51;94459.63;5048046;28;20167;-78
2022/10/19 00:13:36;;;;;;;1.73;1.25;;;;;;;9.35;40.45;94437.75;5031548;28;20053;-79
2022/10/19 00:16:08;;;;;;;4.10;1.48;;;;;;;9.42;40.42;94454.91;5022332;28;20032;-77
2022/10/19 00:18:33;;;;;;;2.17;1.33;;;;;;;9.39;40.58;94450.16;5036267;28;20518;-77
2022/10/19 00:21:08;;;;;;;1.90;1.55;;;;;;;9.40;40.76;94433.16;5030341;28;20375;-77
2022/10/19 00:23:33;;;;;;;3.35;1.88;;;;;;;9.28;40.98;94442.66;5029056;28;20048;-77
2022/10/19 00:25:59;;;;;;;14.10;1.88;;;;;;;9.28;40.91;94435.50;5028763;28;20030;-78
2022/10/19 00:28:25;;;;;;;3.38;2.20;;;;;;;8.93;41.20;94396.97;5028314;28;20949;-78
2022/10/19 00:30:50;;;;;;;2.63;1.77;;;;;;;9.06;41.15;94405.28;5029865;28;20794;-79
2022/10/19 00:33:22;;;;;;;2.88;1.90;;;;;;;8.99;41.37;94403.78;5028198;28;20052;-78
2022/10/19 00:35:50;;;;;;;2.28;1.60;;;;;;;8.94;41.22;94373.91;5030140;28;20520;-77
2022/10/19 00:38:17;;;;;;;3.42;2.47;;;;;;;9.15;41.23;94407.00;5026983;28;20111;-78
2022/10/19 00:40:42;;;;;;;2.08;1.77;;;;;;;9.15;41.07;94407.00;5029527;28;20037;-77
2022/10/19 00:43:13;;;;;;;2.35;1.90;;;;;;;9.13;41.01;94398.56;5028953;28;20021;-77
2022/10/19 00:45:39;;;;;;;3.58;1.83;;;;;;;9.16;41.03;94397.97;5027985;28;20053;-77
2022/10/19 00:48:05;;;;;;;3.10;1.80;;;;;;;9.18;40.97;94401.16;5030653;28;20068;-77
2022/10/19 00:50:31;;;;;;;4.32;2.00;;;;;;;9.12;41.28;94383.72;5031051;28;20627;-79
2022/10/19 00:52:56;;;;;;;2.17;1.45;;;;;;;9.17;41.16;94388.94;5027832;28;20040;-78
2022/10/19 00:55:23;;;;;;;2.22;1.88;;;;;;;9.17;41.06;94388.94;5028601;28;20044;-78
2022/10/19 00:57:49;;;;;;;2.40;1.80;;;;;;;9.00;41.08;94367.41;5030725;28;20112;-77
2022/10/19 01:00:14;;;;;;;5.07;1.80;;;;;;;9.13;41.17;94387.97;5028826;28;20028;-77
2022/10/19 01:02:39;;;;;;;3.53;1.70;;;;;;;9.10;41.36;94388.47;5026715;28;20163;-77
2022/10/19 01:05:06;;;;;;;3.35;2.00;;;;;;;9.03;41.26;94382.78;5028581;28;20160;-77
2022/10/19 01:07:32;;;;;;;3.70;2.03;;;;;;;9.05;41.54;94371.88;5024327;28;20033;-77
2022/10/19 01:09:58;;;;;;;3.53;1.98;;;;;;;8.73;41.48;94338.13;5029112;28;20127;-79
2022/10/19 01:12:45;;;;;;;5.38;2.15;;;;;;;8.89;41.42;94355.41;5028636;28;20021;-78
2022/10/19 01:15:35;;;;;;;3.53;2.00;;;;;;;8.99;41.56;94365.88;5046354;28;20029;-78
2022/10/19 01:18:38;;;;;;;5.80;2.10;;;;;;;8.89;41.93;94358.84;5048542;28;20488;-78
2022/10/19 01:21:12;;;;;;;2.65;1.45;;;;;;;8.96;41.53;94356.59;5049975;28;20025;-77
2022/10/19 01:23:56;;;;;;;3.08;2.00;;;;;;;8.99;41.43;94349.94;5029490;28;20486;-77
2022/10/19 01:26:43;;;;;;;3.67;1.67;;;;;;;8.97;41.50;94358.19;5047229;28;20568;-78
2022/10/19 01:29:42;;;;;;;3.33;2.08;;;;;;;8.97;41.57;94352.09;5048401;28;20036;-78
2022/10/19 01:32:15;;;;;;;7.35;1.90;;;;;;;8.84;41.65;94336.91;5048764;28;20042;-78
2022/10/19 01:34:54;;;;;;;3.08;1.95;;;;;;;8.74;41.64;94321.16;5030166;28;20014;-78
2022/10/19 01:37:41;;;;;;;3.92;2.28;;;;;;;8.95;41.55;94344.41;5047595;28;20086;-79
2022/10/19 01:40:14;;;;;;;4.22;2.33;;;;;;;8.92;41.72;94344.22;5043623;28;20051;-80
2022/10/19 01:42:55;;;;;;;3.50;2.20;;;;;;;8.90;41.50;94343.72;5046958;28;20020;-77
2022/10/19 01:45:27;;;;;;;4.32;2.50;;;;;;;8.72;41.66;94308.19;5047822;28;20060;-78
2022/10/19 01:48:05;;;;;;;3.50;2.40;;;;;;;8.88;41.52;94337.91;5027984;28;20052;-77
2022/10/19 01:50:37;;;;;;;2.78;1.95;;;;;;;8.72;41.84;94307.38;5033253;28;20058;-77
2022/10/19 01:53:06;;;;;;;3.25;2.60;;;;;;;8.61;41.94;94288.19;5047504;28;20119;-78
2022/10/19 01:55:33;;;;;;;2.65;2.20;;;;;;;8.73;41.57;94301.00;5047294;28;20051;-77
2022/10/19 01:58:09;;;;;;;3.85;2.22;;;;;;;8.83;41.88;94320.22;5048925;28;20082;-78
2022/10/19 02:00:38;;;;;;;3.65;2.17;;;;;;;8.85;42.02;94326.00;5026614;28;20028;-79
2022/10/19 02:03:05;;;;;;;3.90;2.00;;;;;;;8.84;42.15;94326.31;5047664;28;20400;-78
2022/10/19 02:05:33;;;;;;;3.00;2.15;;;;;;;8.86;42.02;94329.44;5046044;28;20047;-76
2022/10/19 02:08:03;;;;;;;3.42;1.80;;;;;;;8.72;41.73;94307.38;5033397;28;20091;-79
2022/10/19 02:10:31;;;;;;;4.25;2.55;;;;;;;8.81;42.02;94326.88;5043339;28;20063;-78
2022/10/19 02:12:57;;;;;;;6.05;3.17;;;;;;;8.78;41.88;94330.91;5047226;28;20806;-79
2022/10/19 02:15:25;;;;;;;2.47;2.20;;;;;;;8.71;41.89;94316.41;5045412;28;20108;-79
2022/10/19 02:17:55;;;;;;;3.75;2.10;;;;;;;8.75;42.11;94322.75;5044696;28;20051;-79
2022/10/19 02:20:21;;;;;;;7.53;2.65;;;;;;;8.56;42.04;94285.59;5044111;28;20036;-79
2022/10/19 02:22:46;;;;;;;5.10;1.90;;;;;;;8.68;41.92;94322.31;5047338;28;20024;-78
2022/10/19 02:25:13;;;;;;;4.88;2.33;;;;;;;8.53;41.89;94305.53;5048818;28;20032;-77
2022/10/19 02:27:42;;;;;;;3.45;2.40;;;;;;;8.67;42.04;94320.72;5047385;28;20020;-79
2022/10/19 02:30:10;;;;;;;9.27;2.58;;;;;;;8.66;42.10;94319.16;5045958;28;20025;-78
2022/10/19 02:32:35;;;;;;;4.68;2.72;;;;;;;8.52;41.93;94319.88;5049034;28;20025;-79
2022/10/19 02:35:01;;;;;;;4.85;2.53;;;;;;;8.35;41.88;94285.16;5046185;28;20028;-77
2022/10/19 02:37:26;;;;;;;5.35;2.17;;;;;;;8.57;42.18;94305.75;5046565;28;20029;-77
2022/10/19 02:39:52;;;;;;;5.72;3.33;;;;;;;8.33;42.26;94286.50;5044238;28;20467;-79
2022/10/19 02:42:27;;;;;;;7.10;3.00;;;;;;;8.51;42.05;94312.22;5029088;28;20025;-77
2022/10/19 02:44:58;;;;;;;4.20;2.88;;;;;;;8.50;42.20;94319.38;5038023;28;20060;-78
2022/10/19 02:47:31;;;;;;;3.40;1.58;;;;;;;8.57;41.84;94321.66;5047479;28;20032;-80
2022/10/19 02:49:57;;;;;;;4.90;2.10;;;;;;;8.53;41.78;94326.75;5029681;28;20822;-76
2022/10/19 02:52:22;;;;;;;3.08;2.10;;;;;;;8.48;42.15;94308.28;5038703;28;20025;-79
2022/10/19 02:54:48;;;;;;;3.08;1.58;;;;;;;8.55;42.05;94318.53;5051334;28;20048;-79
2022/10/19 02:57:19;;;;;;;3.35;1.80;;;;;;;8.53;42.02;94310.84;5049158;28;20519;-78
2022/10/19 02:59:45;;;;;;;5.57;2.30;;;;;;;8.35;42.16;94279.84;5051324;28;20276;-78
2022/10/19 03:02:11;;;;;;;2.33;1.67;;;;;;;8.34;42.11;94286.22;5048970;28;20021;-77
2022/10/19 03:04:37;;;;;;;2.67;1.85;;;;;;;8.49;42.13;94299.25;5052371;28;20024;-77
2022/10/19 03:07:02;;;;;;;4.28;1.80;;;;;;;8.53;41.88;94307.41;5050211;28;20074;-77
2022/10/19 03:09:27;;;;;;;3.58;2.00;;;;;;;8.48;41.88;94308.28;5050650;28;20159;-79
2022/10/19 03:11:55;;;;;;;2.90;1.70;;;;;;;8.46;42.21;94310.41;5049259;28;20048;-78
2022/10/19 03:14:20;;;;;;;4.30;2.70;;;;;;;8.31;42.27;94286.00;5050919;28;20139;-79
2022/10/19 03:16:46;;;;;;;3.30;2.15;;;;;;;8.34;42.18;94298.69;5047862;28;20612;-78
2022/10/19 03:19:11;;;;;;;3.72;2.03;;;;;;;8.10;42.62;94267.75;5050843;28;20028;-78
2022/10/19 03:21:36;;;;;;;4.95;2.97;;;;;;;8.36;42.51;94310.59;5048378;28;20991;-76
2022/10/19 03:24:02;;;;;;;8.98;3.92;;;;;;;8.39;42.60;94317.16;5029509;28;20056;-77
2022/10/19 03:26:27;;;;;;;4.47;2.88;;;;;;;8.04;42.22;94252.97;5030555;28;20478;-78
2022/10/19 03:28:53;;;;;;;6.70;2.35;;;;;;;8.35;42.27;94314.31;5050003;28;20036;-77
2022/10/19 03:31:18;;;;;;;7.70;2.10;;;;;;;8.20;42.62;94292.50;5047017;28;20034;-78
2022/10/19 03:33:44;;;;;;;5.70;1.92;;;;;;;7.96;42.85;94260.78;5051049;28;21092;-78
2022/10/19 03:36:21;;;;;;;7.05;2.40;;;;;;;8.29;42.52;94304.84;5049786;28;20028;-78
2022/10/19 03:38:50;;;;;;;6.63;2.00;;;;;;;7.89;42.67;94245.25;5051175;28;20028;-79
2022/10/19 03:41:16;;;;;;;5.50;1.98;;;;;;;8.05;42.78;94273.09;5048361;28;20264;-77
2022/10/19 03:43:41;;;;;;;3.60;2.55;;;;;;;8.24;42.67;94294.31;5048652;28;20032;-79
2022/10/19 03:46:07;;;;;;;3.75;2.05;;;;;;;8.23;42.99;94291.94;5047595;28;20729;-77
2022/10/19 03:48:33;;;;;;;2.10;1.88;;;;;;;8.04;42.91;94270.72;5051189;28;20063;-77
2022/10/19 03:51:08;;;;;;;2.78;2.50;;;;;;;8.13;42.76;94296.31;5047888;28;20392;-77
2022/10/19 03:53:33;;;;;;;;;;;;;;;8.09;43.16;94295.31;5050653;28;20024;-78
2022/10/19 03:56:02;;;;;;;2.25;1.70;;;;;;;8.03;43.20;94303.59;5048129;28;19920;-76
2022/10/19 03:58:31;;;;;;;5.22;2.33;;;;;;;7.90;43.21;94278.59;5051030;28;20222;-77
2022/10/19 04:00:57;;;;;;;3.22;2.08;;;;;;;7.68;43.50;94242.03;5050287;28;20040;-79
2022/10/19 04:03:22;;;;;;;5.07;2.30;;;;;;;7.82;43.48;94278.44;5048039;28;20167;-79
2022/10/19 04:05:48;;;;;;;5.72;3.10;;;;;;;7.83;43.52;94280.00;5048979;28;20586;-79
2022/10/19 04:08:13;;;;;;;3.53;2.25;;;;;;;7.79;43.53;94284.28;5049361;28;20497;-79
2022/10/19 04:10:38;;;;;;;4.22;2.42;;;;;;;7.88;43.50;94298.47;5048109;28;20035;-77
2022/10/19 04:13:04;;;;;;;2.75;2.20;;;;;;;7.57;43.53;94245.91;5050059;28;20060;-78
2022/10/19 04:15:29;;;;;;;4.55;2.38;;;;;;;7.69;43.78;94267.44;5046076;28;20395;-78
2022/10/19 04:17:54;;;;;;;7.43;2.58;;;;;;;7.71;44.05;94259.22;5048661;28;20020;-77
2022/10/19 04:20:20;;;;;;;8.50;2.53;;;;;;;7.45;44.19;94236.75;5045087;28;20081;-78
2022/10/19 04:22:45;;;;;;;3.13;2.38;;;;;;;7.75;44.36;94275.34;5048818;28;20127;-77
2022/10/19 04:25:11;;;;;;;3.55;2.35;;;;;;;7.54;44.23;94245.66;5046912;28;20070;-77
2022/10/19 04:27:37;;;;;;;4.00;2.05;;;;;;;7.78;44.37;94272.16;5037698;28;20808;-80
2022/10/19 04:30:03;;;;;;;3.83;2.42;;;;;;;7.60;44.18;94236.59;5046232;28;20025;-78
2022/10/19 04:32:28;;;;;;;6.28;3.25;;;;;;;7.61;44.16;94235.50;5048840;28;20028;-78
2022/10/19 04:34:53;;;;;;;10.98;2.47;;;;;;;7.84;44.10;94265.69;5047554;28;20762;-79
2022/10/19 04:37:19;;;;;;;3.42;2.08;;;;;;;7.62;44.07;94237.88;5049570;28;20035;-77
2022/10/19 04:39:44;;;;;;;4.90;3.05;;;;;;;7.68;44.26;94242.03;5031410;28;20099;-79
2022/10/19 04:42:09;;;;;;;7.95;3.17;;;;;;;7.81;44.28;94267.06;5048917;28;20033;-78
2022/10/19 04:44:35;;;;;;;8.93;3.40;;;;;;;7.69;44.12;94254.19;5048172;28;20504;-78
2022/10/19 04:47:00;;;;;;;5.75;3.25;;;;;;;7.50;44.24;94224.25;5028152;28;20021;-78
2022/10/19 04:49:26;;;;;;;9.93;6.47;;;;;;;7.69;44.29;94258.69;5045043;28;20021;-78
2022/10/19 04:51:51;;;;;;;18.95;10.82;;;;;;;7.73;44.72;94272.22;5049086;28;20124;-77
2022/10/19 04:54:16;;;;;;;17.52;9.55;;;;;;;7.71;44.38;94277.75;5048321;28;20496;-80
2022/10/19 04:56:42;;;;;;;19.23;8.95;;;;;;;7.67;44.59;94282.84;5048830;28;20033;-79
2022/10/19 04:59:08;;;;;;;9.63;6.80;;;;;;;7.66;44.88;94281.25;5048451;28;20032;-78
2022/10/19 05:01:34;;;;;;;14.85;5.63;;;;;;;7.55;45.07;94274.50;5047437;28;20129;-77
2022/10/19 05:04:01;;;;;;;11.88;5.53;;;;;;;7.61;45.19;94281.31;5033873;28;20473;-77
2022/10/19 05:06:27;;;;;;;9.32;5.32;;;;;;;7.45;45.18;94242.84;5044054;28;20024;-78
2022/10/19 05:08:53;;;;;;;9.68;4.97;;;;;;;7.16;45.19;94213.00;5046621;28;20059;-77
2022/10/19 05:11:19;;;;;;;12.88;5.18;;;;;;;7.59;45.17;94274.69;5045845;28;20034;-79
2022/10/19 05:13:45;;;;;;;16.25;5.68;;;;;;;7.55;45.47;94274.50;5046518;28;20413;-78
2022/10/19 05:16:16;;;;;;;11.05;5.75;;;;;;;7.54;45.63;94272.91;5047608;28;20025;-78
2022/10/19 05:18:45;;;;;;;14.20;5.07;;;;;;;7.54;45.95;94267.63;5030105;28;20029;-79
2022/10/19 05:21:12;;;;;;;10.95;5.07;;;;;;;7.55;45.96;94269.19;5027261;28;20410;-79
2022/10/19 05:23:39;;;;;;;15.77;5.32;;;;;;;7.55;45.84;94261.25;5047657;28;20555;-79
2022/10/19 05:26:13;;;;;;;8.20;5.05;;;;;;;7.50;46.43;94258.66;5047422;28;20021;-77
2022/10/19 05:28:38;;;;;;;8.55;5.05;;;;;;;7.54;46.13;94262.31;5046323;28;20029;-77
2022/10/19 05:31:18;;;;;;;11.43;4.88;;;;;;;7.60;46.30;94263.06;5047653;28;20120;-77
2022/10/19 05:33:44;;;;;;;9.27;4.78;;;;;;;7.39;46.41;94232.59;5027624;28;20547;-79
2022/10/19 05:36:20;;;;;;;15.40;4.97;;;;;;;7.66;46.34;94278.59;5046164;28;20025;-78
2022/10/19 05:38:48;;;;;;;21.33;5.18;;;;;;;7.47;46.41;94245.22;5030640;28;20036;-78
2022/10/19 05:41:14;;;;;;;13.93;6.38;;;;;;;7.65;46.29;94258.50;5046522;28;20047;-79
2022/10/19 05:43:40;;;;;;;12.65;5.65;;;;;;;7.71;46.33;94254.72;5047928;28;20029;-77
2022/10/19 05:46:09;;;;;;;10.68;6.65;;;;;;;7.80;46.08;94252.25;5047388;28;20019;-77
2022/10/19 05:48:34;;;;;;;11.85;6.65;;;;;;;7.77;46.24;94239.59;5046806;28;20021;-80
2022/10/19 05:51:01;;;;;;;11.40;7.38;;;;;;;8.01;45.90;94266.81;5022691;28;20017;-79
2022/10/19 05:53:28;;;;;;;9.55;6.43;;;;;;;7.70;45.95;94216.06;5043761;28;20040;-77
2022/10/19 05:55:53;;;;;;;10.02;6.40;;;;;;;8.24;45.68;94275.75;5024954;28;20064;-79
2022/10/19 05:58:18;;;;;;;10.73;7.18;;;;;;;8.31;45.27;94281.50;5041891;28;20139;-78
2022/10/19 06:00:53;;;;;;;15.90;7.32;;;;;;;8.44;45.24;94279.97;5048127;28;20381;-78
2022/10/19 06:03:20;;;;;;;17.45;7.78;;;;;;;8.39;45.46;94257.00;5046675;28;20028;-79
2022/10/19 06:05:46;;;;;;;13.60;8.43;;;;;;;8.56;45.08;94267.84;5045939;28;20432;-76
2022/10/19 06:08:12;;;;;;;19.83;8.48;;;;;;;8.71;45.20;94280.06;5045410;28;20484;-78
2022/10/19 06:10:37;;;;;;;14.23;9.27;;;;;;;8.61;44.96;94259.03;5046819;28;20056;-78
2022/10/19 06:13:02;;;;;;;17.60;8.65;;;;;;;8.22;44.98;94202.94;5042255;28;20045;-77
2022/10/19 06:15:31;;;;;;;23.17;10.13;;;;;;;8.80;45.15;94278.38;5022699;28;20552;-78
2022/10/19 06:17:56;;;;;;;16.23;9.15;;;;;;;8.64;44.66;94249.72;5044179;28;20190;-77
2022/10/19 06:20:21;;;;;;;16.38;9.70;;;;;;;8.95;44.80;94301.19;5045128;28;20547;-78
2022/10/19 06:22:47;;;;;;;22.45;10.25;;;;;;;8.87;44.93;94277.97;5048384;28;20083;-80
2022/10/19 06:25:12;;;;;;;22.35;9.02;;;;;;;9.07;44.42;94304.16;5047805;28;20073;-77
2022/10/19 06:27:38;;;;;;;22.02;9.68;;;;;;;8.89;44.61;94262.56;5049753;28;20029;-79
2022/10/19 06:30:04;;;;;;;16.67;9.25;;;;;;;9.11;44.34;94278.66;5031313;28;20693;-78
2022/10/19 06:32:29;;;;;;;17.33;9.88;;;;;;;9.37;44.18;94306.31;5046166;28;20029;-78
2022/10/19 06:34:55;;;;;;;18.95;9.00;;;;;;;9.51;44.10;94303.69;5047791;28;20087;-79
2022/10/19 06:37:20;;;;;;;19.13;9.35;;;;;;;9.36;43.97;94258.81;5046203;28;20134;-77
2022/10/19 06:39:45;;;;;;;15.32;9.43;;;;;;;9.70;43.90;94290.31;5046533;28;20031;-77
2022/10/19 06:42:11;;;;;;;17.25;9.75;;;;;;;9.49;43.57;94257.28;5044960;28;20433;-78
2022/10/19 06:44:36;;;;;;;18.58;9.23;;;;;;;9.61;43.32;94254.91;5047428;28;20485;-78
2022/10/19 06:47:01;;;;;;;24.65;9.98;;;;;;;9.78;43.05;94276.34;5048094;28;20356;-78
2022/10/19 06:49:27;;;;;;;20.45;9.27;;;;;;;9.96;42.84;94294.03;5046420;28;20032;-79
2022/10/19 06:51:52;;;;;;;18.85;10.32;;;;;;;10.04;43.06;94301.31;5048604;28;20650;-78
2022/10/19 06:54:18;;;;;;;22.35;10.88;;;;;;;9.90;43.05;94252.72;5044611;28;20489;-77
2022/10/19 06:56:43;;;;;;;21.45;10.88;;;;;;;9.99;42.71;94250.91;5048838;28;20276;-79
2022/10/19 06:59:09;;;;;;;19.73;10.73;;;;;;;10.11;42.91;94248.56;5044959;28;20368;-78
2022/10/19 07:01:34;;;;;;;20.63;10.75;;;;;;;10.40;42.67;94277.44;5045192;28;20548;-79
2022/10/19 07:04:01;;;;;;;18.70;11.10;;;;;;;10.36;42.59;94275.66;5029707;28;20394;-79
2022/10/19 07:06:27;;;;;;;22.30;11.10;;;;;;;10.37;42.42;94267.41;5028842;28;20028;-77
2022/10/19 07:08:53;;;;;;;29.05;11.52;;;;;;;9.93;42.31;94182.25;5045142;28;20025;-77
2022/10/19 07:11:21;;;;;;;20.98;10.88;;;;;;;10.57;42.57;94271.47;5045372;28;20608;-78
2022/10/19 07:13:47;;;;;;;20.25;12.23;;;;;;;10.42;41.80;94255.84;5048772;28;20033;-78
2022/10/19 07:16:15;;;;;;;23.05;12.80;;;;;;;10.61;41.92;94277.78;5045483;28;20349;-77
2022/10/19 07:18:41;;;;;;;21.90;11.57;;;;;;;10.51;42.02;94251.41;5045293;28;20036;-77
2022/10/19 07:21:09;;;;;;;22.60;10.25;;;;;;;10.86;41.87;94279.81;5027963;28;20036;-79
2022/10/19 07:23:37;;;;;;;16.52;9.90;;;;;;;10.67;41.00;94241.97;5043047;28;20036;-79
2022/10/19 07:26:20;;;;;;;19.73;11.00;;;;;;;10.95;41.03;94256.72;5044757;28;20400;-77
2022/10/19 07:28:47;;;;;;;17.52;10.15;;;;;;;10.89;41.17;94263.25;5030651;28;20091;-79
2022/10/19 07:31:19;;;;;;;27.70;11.65;;;;;;;11.10;41.47;94269.63;5044829;28;20332;-78
2022/10/19 07:33:44;;;;;;;17.95;10.95;;;;;;;11.01;41.56;94244.84;5034665;28;20400;-78
2022/10/19 07:36:12;;;;;;;18.08;11.40;;;;;;;11.16;41.46;94263.09;5041406;28;20031;-77
2022/10/19 07:38:38;;;;;;;16.80;10.55;;;;;;;11.15;41.52;94252.75;5046209;28;20024;-79
2022/10/19 07:41:04;;;;;;;20.48;10.23;;;;;;;11.28;41.36;94264.41;5041136;28;20025;-77
2022/10/19 07:43:30;;;;;;;20.15;11.57;;;;;;;11.31;40.78;94253.94;5041778;28;20562;-78
2022/10/19 07:46:00;;;;;;;20.83;13.00;;;;;;;10.84;40.87;94196.06;5041332;28;20024;-77
2022/10/19 07:48:25;;;;;;;21.48;11.68;;;;;;;10.77;41.21;94209.81;5043331;28;20417;-77
2022/10/19 07:50:51;;;;;;;20.90;13.10;;;;;;;11.23;40.87;94245.91;5045469;28;20020;-76
2022/10/19 07:53:16;;;;;;;21.17;12.55;;;;;;;10.97;41.59;94227.91;5043344;28;20060;-78
2022/10/19 07:55:42;;;;;;;22.73;12.77;;;;;;;11.06;40.99;94235.94;5040987;28;20585;-79
2022/10/19 07:58:07;;;;;;;25.35;14.13;;;;;;;10.99;41.44;94199.13;5039115;28;20063;-78
2022/10/19 08:00:32;;;;;;;26.08;13.48;;;;;;;11.24;41.65;94208.34;5044552;28;20032;-79
2022/10/19 08:02:58;;;;;;;20.45;12.40;;;;;;;11.13;41.71;94193.72;5043715;28;20028;-78
2022/10/19 08:05:23;;;;;;;18.92;11.63;;;;;;;11.52;41.86;94217.72;5044347;28;20028;-77
2022/10/19 08:07:48;;;;;;;25.38;13.35;;;;;;;11.64;41.56;94209.09;5043490;28;20036;-79
2022/10/19 08:10:14;;;;;;;25.05;14.98;;;;;;;11.63;40.35;94207.56;5032885;28;20117;-78
2022/10/19 08:12:39;;;;;;;19.88;13.82;;;;;;;11.80;40.41;94226.25;5037986;28;20025;-77
2022/10/19 08:15:06;;;;;;;25.85;15.35;;;;;;;11.89;40.09;94218.25;5045882;28;20589;-75
2022/10/19 08:17:34;;;;;;;30.70;16.02;;;;;;;12.01;40.02;94223.78;5044712;28;20111;-77
2022/10/19 08:20:00;;;;;;;29.98;14.82;;;;;;;12.13;39.78;94229.25;5046692;28;20031;-77
2022/10/19 08:22:25;;;;;;;24.73;15.70;;;;;;;12.18;39.72;94223.00;5041610;28;20500;-78
2022/10/19 08:24:50;;;;;;;23.98;15.18;;;;;;;12.04;39.82;94186.59;5048843;28;20108;-77
2022/10/19 08:27:16;;;;;;;45.45;16.60;;;;;;;11.86;39.94;94147.72;5048752;28;20051;-79
2022/10/19 08:29:41;;;;;;;26.42;16.63;;;;;;;12.23;39.67;94193.50;5050302;28;20036;-79
2022/10/19 08:32:07;;;;;;;19.60;13.13;;;;;;;12.43;39.70;94216.88;5046656;28;20036;-78
2022/10/19 08:34:32;;;;;;;19.88;12.75;;;;;;;12.41;39.87;94203.09;5048638;28;20544;-77
2022/10/19 08:37:00;;;;;;;18.90;11.98;;;;;;;12.37;39.66;94199.50;5045381;28;20072;-78
2022/10/19 08:39:26;;;;;;;19.85;8.40;;;;;;;12.40;39.02;94196.97;5047266;28;20036;-80
2022/10/19 08:42:16;;;;;;;13.20;8.30;;;;;;;12.47;39.43;94209.81;5046048;28;20103;-78
2022/10/19 08:44:53;;;;;;;13.38;8.05;;;;;;;12.63;39.46;94208.28;5031035;28;20066;-76
2022/10/19 08:48:01;;;;;;;14.23;6.63;;;;;;;12.67;38.16;94209.22;5044886;28;20029;-77
2022/10/19 08:50:38;;;;;;;12.70;7.10;;;;;;;12.61;39.02;94188.38;5012886;28;20036;-79
2022/10/19 08:53:06;;;;;;;17.02;6.65;;;;;;;12.73;37.96;94191.94;5045683;28;20534;-77
2022/10/19 08:55:52;;;;;;;10.18;5.88;;;;;;;12.78;38.24;94201.66;5046610;28;20040;-79
2022/10/19 08:58:43;;;;;;;11.75;6.13;;;;;;;12.84;38.69;94193.19;5027091;28;20703;-78
2022/10/19 09:01:32;;;;;;;10.45;5.32;;;;;;;12.62;38.91;94142.66;4974127;28;20300;-79
2022/10/19 09:04:05;;;;;;;7.60;5.13;;;;;;;12.75;38.41;94147.06;5025393;28;20589;-79
2022/10/19 09:06:50;;;;;;;8.00;4.13;;;;;;;12.99;37.84;94169.75;5035600;28;20120;-79
2022/10/19 09:09:18;;;;;;;9.07;4.93;;;;;;;13.15;38.35;94186.81;5020718;28;20374;-79
2022/10/19 09:11:47;;;;;;;7.82;4.13;;;;;;;13.00;38.84;94155.31;5042093;28;20200;-80
2022/10/19 09:14:29;;;;;;;4.07;3.60;;;;;;;13.26;37.65;94188.03;5044186;28;20029;-79
2022/10/19 09:17:00;;;;;;;5.55;4.10;;;;;;;13.23;38.10;94178.00;5042954;28;20049;-78
2022/10/19 09:19:29;;;;;;;13.13;4.13;;;;;;;13.40;38.41;94185.91;5047549;28;20422;-79
2022/10/19 09:22:03;;;;;;;10.20;3.20;;;;;;;13.48;37.95;94189.66;5046251;28;20056;-80
2022/10/19 09:24:49;;;;;;;7.80;3.42;;;;;;;13.52;38.25;94187.91;5048382;28;20036;-80
2022/10/19 09:27:20;;;;;;;9.57;3.63;;;;;;;13.31;37.93;94153.91;5037053;28;20499;-80
2022/10/19 09:30:03;;;;;;;8.00;3.13;;;;;;;13.42;37.77;94159.66;5047073;28;20036;-80
2022/10/19 09:32:33;;;;;;;4.82;2.75;;;;;;;13.53;37.99;94190.28;5046234;28;20471;-79
2022/10/19 09:35:02;;;;;;;6.55;3.13;;;;;;;13.45;38.13;94174.25;5047470;28;20025;-78
2022/10/19 09:37:30;;;;;;;4.22;2.80;;;;;;;13.60;37.28;94193.25;5048152;28;20029;-79
2022/10/19 09:39:56;;;;;;;4.05;2.72;;;;;;;13.66;37.05;94191.16;5045723;28;20032;-79
2022/10/19 09:42:31;;;;;;;5.80;2.90;;;;;;;13.53;36.75;94166.22;5036991;28;20441;-79
2022/10/19 09:44:59;;;;;;;7.18;3.47;;;;;;;13.68;37.28;94189.75;5037487;28;20032;-79
2022/10/19 09:47:39;;;;;;;5.40;2.97;;;;;;;13.60;36.77;94177.22;5032049;28;20025;-79
2022/10/19 09:50:19;;;;;;;3.67;2.33;;;;;;;13.86;36.72;94186.97;5031217;28;20030;-79
2022/10/19 09:52:46;;;;;;;4.47;2.55;;;;;;;14.06;36.43;94180.88;5047225;28;20429;-78
2022/10/19 09:55:12;;;;;;;4.72;2.65;;;;;;;14.06;35.92;94187.00;5049227;28;20028;-78
2022/10/19 09:57:42;;;;;;;5.90;3.47;;;;;;;14.08;36.37;94171.41;5046548;28;20021;-78
2022/10/19 10:00:18;;;;;;;4.57;3.03;;;;;;;14.29;36.43;94184.78;5053164;28;20467;-78
2022/10/19 10:02:52;;;;;;;6.63;3.40;;;;;;;14.30;36.27;94186.34;5053936;28;20028;-79
2022/10/19 10:05:19;;;;;;;3.60;2.50;;;;;;;14.28;36.48;94175.19;5051395;28;20435;-75
2022/10/19 10:07:44;;;;;;;6.82;2.20;;;;;;;14.47;36.53;94178.16;5042971;28;20078;-80
2022/10/19 10:10:26;;;;;;;5.25;2.58;;;;;;;14.60;36.04;94171.00;5053089;28;20021;-79
2022/10/19 10:12:53;;;;;;;3.95;2.70;;;;;;;14.57;34.91;94169.75;5047894;28;20471;-79
2022/10/19 10:15:23;;;;;;;4.05;2.60;;;;;;;14.55;34.44;94161.28;5051056;28;20045;-78
2022/10/19 10:17:49;;;;;;;2.63;1.90;;;;;;;14.72;33.76;94163.00;5052203;28;20170;-77
2022/10/19 10:20:26;;;;;;;6.68;2.20;;;;;;;14.71;34.24;94169.50;5052539;28;20036;-78
2022/10/19 10:23:03;;;;;;;4.57;2.72;;;;;;;14.83;34.87;94153.44;5053374;28;20032;-79
2022/10/19 10:25:33;;;;;;;7.63;3.00;;;;;;;14.90;33.63;94142.22;5051457;28;20599;-78
2022/10/19 10:28:16;;;;;;;3.03;2.10;;;;;;;15.00;32.11;94147.13;5053819;28;20567;-79
2022/10/19 10:30:44;;;;;;;3.47;2.15;;;;;;;14.76;32.33;94126.44;5055068;28;20040;-78
2022/10/19 10:33:24;;;;;;;3.92;2.63;;;;;;;14.95;31.84;94136.63;5039687;28;20044;-78
2022/10/19 10:35:54;;;;;;;3.75;2.22;;;;;;;14.80;31.35;94127.34;5036030;28;20052;-78
2022/10/19 10:38:27;;;;;;;3.88;2.00;;;;;;;14.98;32.30;94134.06;5053306;28;20028;-77
2022/10/19 10:41:02;;;;;;;3.33;2.10;;;;;;;14.89;30.20;94106.63;5055417;28;20490;-77
2022/10/19 10:43:33;;;;;;;2.05;1.85;;;;;;;14.85;30.11;94089.66;5053479;28;20488;-78
2022/10/19 10:46:04;;;;;;;3.70;1.83;;;;;;;15.03;31.20;94088.31;5043429;28;20120;-77
2022/10/19 10:48:39;;;;;;;3.35;2.13;;;;;;;15.36;30.74;94112.31;5052830;28;20628;-81
2022/10/19 10:51:19;;;;;;;3.55;2.08;;;;;;;15.23;30.67;94089.34;5037660;28;20028;-77
2022/10/19 10:53:45;;;;;;;3.53;2.20;;;;;;;15.39;30.17;94102.84;5055549;28;20064;-77
2022/10/19 10:56:26;;;;;;;4.15;2.35;;;;;;;15.45;30.04;94104.19;5052092;28;20215;-78
2022/10/19 10:58:59;;;;;;;3.75;1.88;;;;;;;15.34;30.23;94077.06;5049905;28;20032;-78
2022/10/19 11:01:34;;;;;;;3.50;2.40;;;;;;;15.44;30.84;94090.03;5053929;28;20035;-78
2022/10/19 11:04:05;;;;;;;3.70;1.65;;;;;;;15.44;29.29;94081.22;5050403;28;20480;-77
2022/10/19 11:06:35;;;;;;;3.08;1.83;;;;;;;15.39;28.60;94073.38;5032278;28;20452;-79
2022/10/19 11:09:25;;;;;;;3.70;1.63;;;;;;;15.32;28.29;94055.16;5051838;28;20024;-78
2022/10/19 11:11:54;;;;;;;3.00;1.95;;;;;;;15.59;29.47;94074.38;5049211;28;20106;-78
2022/10/19 11:14:34;;;;;;;3.75;1.98;;;;;;;15.43;28.72;94044.78;5049096;28;20028;-79
2022/10/19 11:17:05;;;;;;;3.30;2.08;;;;;;;15.42;28.46;94025.22;5045261;28;20051;-78
2022/10/19 11:19:38;;;;;;;2.53;1.75;;;;;;;15.88;28.68;94071.41;5046684;28;20036;-80
2022/10/19 11:22:12;;;;;;;2.80;1.60;;;;;;;15.96;27.94;94065.13;5049188;28;20024;-79
2022/10/19 11:25:08;;;;;;;4.18;2.35;;;;;;;15.90;27.78;94058.41;5040164;28;20489;-80
2022/10/19 11:28:09;;;;;;;2.20;1.38;;;;;;;16.08;28.39;94064.31;5031776;28;20044;-78
2022/10/19 11:30:58;;;;;;;4.68;1.85;;;;;;;16.12;28.30;94059.81;5050902;28;20099;-79
2022/10/19 11:33:46;;;;;;;2.15;1.70;;;;;;;16.15;28.48;94054.53;5013192;28;20155;-79
2022/10/19 11:36:45;;;;;;;3.00;2.10;;;;;;;16.21;28.13;94055.84;5050281;28;20059;-78
2022/10/19 11:39:40;;;;;;;3.83;2.25;;;;;;;16.33;28.02;94056.97;5046247;28;20048;-79
2022/10/19 11:42:33;;;;;;;4.30;1.80;;;;;;;16.41;28.00;94054.13;5050250;28;20016;-80
2022/10/19 11:45:10;;;;;;;3.38;2.22;;;;;;;16.33;27.02;94047.75;5045079;28;20037;-79
2022/10/19 11:47:58;;;;;;;4.68;2.00;;;;;;;16.42;27.64;94050.31;5043588;28;20021;-76